createdAt,value
2022-10-18T00:00:01.864Z,15.8
2022-10-18T00:01:01.489Z,15.8
2022-10-18T00:02:01.562Z,15.8
2022-10-18T00:03:01.446Z,15.9
2022-10-18T00:04:01.458Z,15.8
2022-10-18T00:05:01.267Z,15.8
2022-10-18T00:06:02.367Z,15.8
2022-10-18T00:07:02.167Z,15.8
2022-10-18T00:08:02.255Z,15.8
2022-10-18T00:09:02.060Z,15.7
2022-10-18T00:10:02.110Z,15.8
2022-10-18T00:11:01.934Z,15.8
2022-10-18T00:12:01.882Z,15.7
2022-10-18T00:13:01.934Z,15.7
2022-10-18T00:14:01.714Z,15.7
2022-10-18T00:15:01.712Z,15.6
2022-10-18T00:16:02.320Z,15.7
2022-10-18T00:17:02.161Z,15.7
2022-10-18T00:18:02.282Z,15.6
2022-10-18T00:19:02.076Z,15.7
2022-10-18T00:20:02.145Z,15.6
2022-10-18T00:21:01.906Z,15.6
2022-10-18T00:22:01.911Z,15.7
2022-10-18T00:23:01.896Z,15.5
2022-10-18T00:24:01.739Z,15.5
2022-10-18T00:25:01.770Z,15.6
2022-10-18T00:26:01.574Z,15.6
2022-10-18T00:27:01.645Z,15.6
2022-10-18T00:28:01.418Z,15.5
2022-10-18T00:29:01.566Z,15.5
2022-10-18T00:30:01.514Z,15.4
2022-10-18T00:31:01.377Z,15.6
2022-10-18T00:32:01.430Z,15.6
2022-10-18T00:33:02.354Z,15.4
2022-10-18T00:34:02.206Z,15.4
2022-10-18T00:35:02.318Z,15.6
2022-10-18T00:36:02.113Z,15.6
2022-10-18T00:37:02.194Z,15.5
2022-10-18T00:38:01.983Z,15.4
2022-10-18T00:39:02.085Z,15.4
2022-10-18T00:40:01.837Z,15.4
2022-10-18T00:41:01.758Z,15.4
2022-10-18T00:42:01.803Z,15.4
2022-10-18T00:43:01.691Z,15.5
2022-10-18T00:44:01.686Z,15.5
2022-10-18T00:45:01.508Z,15.4
2022-10-18T00:46:01.490Z,15.5
2022-10-18T00:47:01.508Z,15.4
2022-10-18T00:48:01.370Z,15.4
2022-10-18T00:49:01.463Z,15.5
2022-10-18T00:50:02.316Z,15.4
2022-10-18T00:51:02.207Z,15.3
2022-10-18T00:52:02.288Z,15.4
2022-10-18T00:53:02.078Z,15.4
2022-10-18T00:54:02.231Z,15.3
2022-10-18T00:55:01.985Z,15.3
2022-10-18T00:56:02.012Z,15.3
2022-10-18T00:57:01.800Z,15.3
2022-10-18T00:58:01.732Z,15.2
2022-10-18T00:59:01.793Z,15.3
2022-10-18T01:00:01.600Z,15.2
2022-10-18T01:01:01.321Z,15.4
2022-10-18T01:02:02.455Z,15.3
2022-10-18T01:03:01.318Z,15.3
2022-10-18T01:04:02.437Z,15.3
2022-10-18T01:05:02.276Z,15.4
2022-10-18T01:06:02.442Z,15.3
2022-10-18T01:07:02.170Z,15.3
2022-10-18T01:08:02.329Z,15.3
2022-10-18T01:09:02.082Z,15.3
2022-10-18T01:10:02.187Z,15.2
2022-10-18T01:11:02.052Z,15.1
2022-10-18T01:12:02.091Z,15.1
2022-10-18T01:13:01.881Z,15.1
2022-10-18T01:14:01.856Z,15.2
2022-10-18T01:15:01.835Z,15.3
2022-10-18T01:16:01.590Z,15.2
2022-10-18T01:17:01.687Z,15.1
2022-10-18T01:18:01.480Z,15.2
2022-10-18T01:19:01.477Z,15.1
2022-10-18T01:20:01.319Z,15.1
2022-10-18T01:21:02.365Z,15
2022-10-18T01:22:02.318Z,15.2
2022-10-18T01:23:02.181Z,15.1
2022-10-18T01:24:02.107Z,15.1
2022-10-18T01:26:01.960Z,15.1
2022-10-18T01:27:02.017Z,15
2022-10-18T01:28:02.065Z,15
2022-10-18T01:29:01.873Z,15
2022-10-18T01:30:01.866Z,15
2022-10-18T01:31:01.625Z,14.9
2022-10-18T01:32:01.638Z,15
2022-10-18T01:33:01.456Z,14.9
2022-10-18T01:35:01.333Z,14.9
2022-10-18T01:36:02.387Z,14.9
2022-10-18T01:37:02.208Z,15
2022-10-18T01:38:02.247Z,15
2022-10-18T01:39:02.097Z,14.9
2022-10-18T01:40:02.125Z,14.9
2022-10-18T01:41:01.967Z,14.9
2022-10-18T01:42:01.929Z,14.9
2022-10-18T01:43:02.081Z,14.9
2022-10-18T01:44:02.061Z,14.8
2022-10-18T01:45:02.019Z,14.9
2022-10-18T01:46:02.098Z,14.9
2022-10-18T01:47:02.170Z,14.9
2022-10-18T01:48:01.951Z,14.9
2022-10-18T01:49:01.944Z,14.8
2022-10-18T01:50:01.763Z,14.8
2022-10-18T01:51:01.724Z,14.7
2022-10-18T01:52:01.863Z,14.8
2022-10-18T01:53:01.784Z,14.8
2022-10-18T01:54:01.711Z,14.8
2022-10-18T01:55:01.761Z,14.8
2022-10-18T01:56:02.227Z,14.8
2022-10-18T01:57:02.054Z,14.8
2022-10-18T01:58:01.496Z,14.7
2022-10-18T01:59:01.397Z,14.8
2022-10-18T02:00:01.495Z,14.8
2022-10-18T02:01:01.982Z,14.8
2022-10-18T02:02:01.944Z,14.7
2022-10-18T02:03:01.959Z,14.7
2022-10-18T02:04:01.796Z,14.7
2022-10-18T02:05:01.735Z,14.6
2022-10-18T02:06:01.791Z,14.6
2022-10-18T02:07:01.546Z,14.6
2022-10-18T02:08:11.987Z,14.6
2022-10-18T02:09:01.445Z,14.5
2022-10-18T02:10:01.530Z,14.6
2022-10-18T02:11:01.560Z,14.6
2022-10-18T02:12:01.610Z,14.6
2022-10-18T02:13:01.452Z,14.7
2022-10-18T02:14:01.479Z,14.6
2022-10-18T02:15:02.363Z,14.5
2022-10-18T02:16:02.124Z,14.6
2022-10-18T02:17:02.182Z,14.6
2022-10-18T02:18:02.012Z,14.6
2022-10-18T02:19:01.950Z,14.6
2022-10-18T02:20:01.844Z,14.5
2022-10-18T02:21:01.789Z,14.5
2022-10-18T02:22:01.837Z,14.5
2022-10-18T02:23:01.564Z,14.5
2022-10-18T02:24:01.574Z,14.5
2022-10-18T02:25:01.379Z,14.5
2022-10-18T02:26:01.494Z,14.5
2022-10-18T02:27:02.389Z,14.4
2022-10-18T02:28:02.235Z,14.3
2022-10-18T02:29:02.294Z,14.4
2022-10-18T02:30:02.146Z,14.4
2022-10-18T02:31:02.090Z,14.4
2022-10-18T02:32:02.129Z,14.4
2022-10-18T02:33:01.956Z,14.3
2022-10-18T02:34:01.917Z,14.4
2022-10-18T02:35:02.008Z,14.4
2022-10-18T02:36:01.759Z,14.4
2022-10-18T02:37:01.707Z,14.4
2022-10-18T02:38:01.740Z,14.4
2022-10-18T02:39:01.603Z,14.4
2022-10-18T02:40:01.595Z,14.3
2022-10-18T02:41:01.411Z,14.4
2022-10-18T02:42:01.448Z,14.3
2022-10-18T02:43:02.410Z,14.3
2022-10-18T02:44:02.245Z,14.3
2022-10-18T02:45:02.311Z,14.3
2022-10-18T02:46:01.978Z,14.3
2022-10-18T02:47:02.002Z,14.3
2022-10-18T02:48:01.951Z,14.2
2022-10-18T02:49:01.916Z,14.3
2022-10-18T02:50:01.917Z,14.4
2022-10-18T02:51:01.813Z,14.2
2022-10-18T02:52:01.726Z,14.3
2022-10-18T02:53:01.829Z,14.4
2022-10-18T02:54:01.631Z,14.4
2022-10-18T02:55:01.740Z,14.2
2022-10-18T02:56:01.491Z,14.3
2022-10-18T02:57:01.513Z,14.4
2022-10-18T02:58:01.428Z,14.4
2022-10-18T02:59:02.437Z,14.3
2022-10-18T03:00:02.231Z,14.3
2022-10-18T03:01:02.064Z,14.3
2022-10-18T03:02:02.116Z,14.3
2022-10-18T03:03:01.962Z,14.3
2022-10-18T03:04:01.913Z,14.3
2022-10-18T03:05:02.007Z,14.2
2022-10-18T03:06:01.792Z,14.2
2022-10-18T03:07:01.704Z,14.3
2022-10-18T03:08:01.703Z,14.3
2022-10-18T03:09:01.560Z,14.3
2022-10-18T03:10:01.578Z,14.3
2022-10-18T03:11:01.356Z,14.2
2022-10-18T03:12:01.750Z,14.1
2022-10-18T03:13:01.600Z,14.2
2022-10-18T03:14:01.685Z,14.1
2022-10-18T03:15:01.550Z,14.2
2022-10-18T03:16:01.352Z,14.2
2022-10-18T03:17:02.519Z,14.2
2022-10-18T03:18:01.442Z,14.1
2022-10-18T03:19:02.436Z,14.1
2022-10-18T03:20:02.355Z,14.1
2022-10-18T03:21:02.276Z,14.2
2022-10-18T03:22:02.119Z,14
2022-10-18T03:23:02.145Z,14.1
2022-10-18T03:24:01.978Z,14.1
2022-10-18T03:25:02.070Z,14
2022-10-18T03:26:02.116Z,14.1
2022-10-18T03:27:01.949Z,14.1
2022-10-18T03:28:01.841Z,14.2
2022-10-18T03:29:01.857Z,14.1
2022-10-18T03:30:01.964Z,14.1
2022-10-18T03:31:01.580Z,14.1
2022-10-18T03:32:01.614Z,14
2022-10-18T03:33:01.416Z,14
2022-10-18T03:34:01.432Z,14.1
2022-10-18T03:35:02.449Z,14.1
2022-10-18T03:36:02.240Z,14.1
2022-10-18T03:37:03.498Z,14
2022-10-18T03:38:02.231Z,14.1
2022-10-18T03:39:02.368Z,14.1
2022-10-18T03:40:02.105Z,14.1
2022-10-18T03:41:02.194Z,14.1
2022-10-18T03:42:01.975Z,14
2022-10-18T03:43:02.028Z,14.1
2022-10-18T03:44:01.862Z,14
2022-10-18T03:45:01.774Z,14.1
2022-10-18T03:46:02.115Z,14
2022-10-18T03:47:02.225Z,14.1
2022-10-18T03:48:01.995Z,14.2
2022-10-18T03:49:02.002Z,14.1
2022-10-18T03:50:01.870Z,14.1
2022-10-18T03:51:01.769Z,14.1
2022-10-18T03:52:01.875Z,14.1
2022-10-18T03:53:01.603Z,14
2022-10-18T03:54:01.679Z,14.1
2022-10-18T03:55:01.417Z,14.1
2022-10-18T03:56:01.467Z,14
2022-10-18T03:57:02.419Z,14.1
2022-10-18T03:58:02.204Z,14.1
2022-10-18T03:59:02.217Z,14.1
2022-10-18T04:00:02.086Z,14.1
2022-10-18T04:01:02.100Z,14.2
2022-10-18T04:02:02.253Z,14
2022-10-18T04:03:02.128Z,14
2022-10-18T04:04:02.074Z,14
2022-10-18T04:05:02.171Z,14
2022-10-18T04:06:01.991Z,14
2022-10-18T04:07:01.890Z,14
2022-10-18T04:08:01.930Z,13.9
2022-10-18T04:09:03.188Z,13.9
2022-10-18T04:10:01.740Z,14
2022-10-18T04:11:01.905Z,14
2022-10-18T04:12:01.696Z,14
2022-10-18T04:13:01.741Z,13.8
2022-10-18T04:14:01.486Z,13.9
2022-10-18T04:15:01.531Z,13.9
2022-10-18T04:16:02.331Z,13.9
2022-10-18T04:17:02.179Z,13.9
2022-10-18T04:18:02.579Z,13.8
2022-10-18T04:19:01.324Z,13.8
2022-10-18T04:20:02.429Z,13.9
2022-10-18T04:21:02.197Z,13.8
2022-10-18T04:22:02.242Z,13.9
2022-10-18T04:23:02.070Z,13.8
2022-10-18T04:24:02.106Z,13.8
2022-10-18T04:25:01.918Z,13.8
2022-10-18T04:26:01.920Z,13.8
2022-10-18T04:27:01.971Z,13.8
2022-10-18T04:28:01.837Z,13.8
2022-10-18T04:29:01.855Z,13.9
2022-10-18T04:30:01.999Z,13.8
2022-10-18T04:31:01.382Z,13.8
2022-10-18T04:32:01.477Z,13.8
2022-10-18T04:33:02.403Z,13.7
2022-10-18T04:34:02.216Z,13.8
2022-10-18T04:35:02.311Z,13.8
2022-10-18T04:36:02.112Z,13.8
2022-10-18T04:37:02.156Z,13.8
2022-10-18T04:38:01.965Z,13.8
2022-10-18T04:39:01.989Z,13.7
2022-10-18T04:40:01.815Z,13.7
2022-10-18T04:41:01.776Z,13.7
2022-10-18T04:42:01.770Z,13.7
2022-10-18T04:43:01.597Z,13.8
2022-10-18T04:44:01.582Z,13.7
2022-10-18T04:45:01.445Z,13.7
2022-10-18T04:46:01.381Z,13.7
2022-10-18T04:47:01.500Z,13.6
2022-10-18T04:48:02.446Z,13.6
2022-10-18T04:49:02.248Z,13.7
2022-10-18T04:50:02.326Z,13.7
2022-10-18T04:51:02.119Z,13.7
2022-10-18T04:52:02.196Z,13.8
2022-10-18T04:53:01.941Z,13.7
2022-10-18T04:54:01.995Z,13.7
2022-10-18T04:55:01.830Z,13.7
2022-10-18T04:56:01.776Z,13.6
2022-10-18T04:57:01.761Z,13.6
2022-10-18T04:58:01.541Z,13.5
2022-10-18T04:59:01.608Z,13.6
2022-10-18T05:00:01.352Z,13.5
2022-10-18T05:01:02.121Z,13.6
2022-10-18T05:02:05.019Z,13.7
2022-10-18T05:03:01.853Z,13.7
2022-10-18T05:04:01.791Z,13.7
2022-10-18T05:05:01.828Z,13.7
2022-10-18T05:06:02.659Z,13.6
2022-10-18T05:07:01.371Z,13.7
2022-10-18T05:08:01.417Z,13.6
2022-10-18T05:09:02.347Z,13.6
2022-10-18T05:10:02.200Z,13.7
2022-10-18T05:11:02.362Z,13.6
2022-10-18T05:12:01.397Z,13.6
2022-10-18T05:13:01.542Z,13.7
2022-10-18T05:14:01.335Z,13.5
2022-10-18T05:15:02.386Z,13.6
2022-10-18T05:16:02.106Z,13.5
2022-10-18T05:17:02.092Z,13.5
2022-10-18T05:18:01.998Z,13.5
2022-10-18T05:19:02.188Z,13.6
2022-10-18T05:20:02.257Z,13.5
2022-10-18T05:21:02.244Z,13.5
2022-10-18T05:22:02.251Z,13.5
2022-10-18T05:23:02.164Z,13.5
2022-10-18T05:24:02.132Z,13.5
2022-10-18T05:25:02.031Z,13.5
2022-10-18T05:26:01.935Z,13.5
2022-10-18T05:27:01.994Z,13.6
2022-10-18T05:28:06.213Z,13.4
2022-10-18T05:29:01.890Z,13.6
2022-10-18T05:30:04.496Z,13.7
2022-10-18T05:31:01.651Z,13.6
2022-10-18T05:32:01.694Z,13.6
2022-10-18T05:33:01.515Z,13.6
2022-10-18T05:34:01.531Z,13.7
2022-10-18T05:35:01.355Z,13.7
2022-10-18T05:36:02.382Z,13.6
2022-10-18T05:37:02.201Z,13.7
2022-10-18T05:38:02.241Z,13.7
2022-10-18T05:39:02.640Z,13.8
2022-10-18T05:40:01.877Z,13.9
2022-10-18T05:41:01.964Z,13.8
2022-10-18T05:42:01.771Z,13.8
2022-10-18T05:43:01.951Z,13.8
2022-10-18T05:44:02.011Z,13.8
2022-10-18T05:45:01.882Z,13.8
2022-10-18T05:46:01.724Z,13.9
2022-10-18T05:47:01.733Z,13.9
2022-10-18T05:48:01.516Z,14
2022-10-18T05:49:01.613Z,14
2022-10-18T05:50:01.408Z,14
2022-10-18T05:51:01.559Z,13.8
2022-10-18T05:52:01.341Z,13.9
2022-10-18T05:53:06.854Z,14.1
2022-10-18T05:54:01.451Z,14
2022-10-18T05:55:01.488Z,14.1
2022-10-18T05:56:01.330Z,14
2022-10-18T05:57:02.399Z,14.1
2022-10-18T05:58:02.235Z,14.1
2022-10-18T05:59:02.272Z,14.1
2022-10-18T06:00:02.139Z,14.2
2022-10-18T06:01:01.959Z,14.3
2022-10-18T06:02:02.082Z,14.3
2022-10-18T06:03:01.924Z,14.3
2022-10-18T06:04:01.808Z,14.4
2022-10-18T06:05:01.917Z,14.3
2022-10-18T06:06:01.711Z,14.3
2022-10-18T06:07:01.754Z,14.3
2022-10-18T06:08:02.547Z,14.5
2022-10-18T06:09:01.810Z,14.4
2022-10-18T06:10:01.850Z,14.5
2022-10-18T06:11:01.685Z,14.4
2022-10-18T06:12:01.782Z,14.4
2022-10-18T06:13:01.553Z,14.3
2022-10-18T06:14:01.634Z,14.4
2022-10-18T06:15:01.377Z,14.4
2022-10-18T06:16:01.410Z,14.4
2022-10-18T06:17:01.453Z,14.6
2022-10-18T06:18:02.389Z,14.6
2022-10-18T06:19:02.262Z,14.6
2022-10-18T06:20:02.287Z,14.5
2022-10-18T06:21:02.114Z,14.6
2022-10-18T06:22:02.252Z,14.7
2022-10-18T06:23:02.108Z,14.6
2022-10-18T06:24:02.098Z,14.7
2022-10-18T06:25:02.019Z,14.7
2022-10-18T06:26:01.884Z,14.7
2022-10-18T06:27:01.990Z,14.7
2022-10-18T06:28:01.809Z,14.6
2022-10-18T06:29:01.789Z,14.7
2022-10-18T06:30:01.910Z,14.7
2022-10-18T06:31:01.395Z,14.7
2022-10-18T06:32:01.491Z,14.8
2022-10-18T06:33:02.418Z,14.8
2022-10-18T06:34:02.193Z,14.8
2022-10-18T06:35:02.235Z,14.9
2022-10-18T06:36:02.096Z,14.9
2022-10-18T06:37:02.172Z,15.1
2022-10-18T06:38:01.944Z,15.1
2022-10-18T06:39:01.980Z,15.2
2022-10-18T06:40:01.784Z,14.9
2022-10-18T06:41:01.670Z,15
2022-10-18T06:42:01.727Z,15.1
2022-10-18T06:43:16.441Z,15.4
2022-10-18T06:44:02.178Z,15.5
2022-10-18T06:45:01.455Z,15.6
2022-10-18T06:46:01.894Z,15.5
2022-10-18T06:47:01.880Z,15.5
2022-10-18T06:48:01.932Z,15.4
2022-10-18T06:49:01.642Z,15.4
2022-10-18T06:50:01.687Z,15.4
2022-10-18T06:51:01.462Z,15.4
2022-10-18T06:52:01.444Z,15.6
2022-10-18T06:53:01.382Z,15.5
2022-10-18T06:54:17.245Z,15.6
2022-10-18T06:55:03.380Z,15.7
2022-10-18T06:56:01.647Z,15.7
2022-10-18T06:57:01.697Z,15.9
2022-10-18T06:58:01.430Z,15.7
2022-10-18T06:59:01.530Z,15.9
2022-10-18T07:00:01.325Z,15.9
2022-10-18T07:01:02.275Z,15.9
2022-10-18T07:02:02.434Z,16
2022-10-18T07:03:01.375Z,16.1
2022-10-18T07:04:01.449Z,16.1
2022-10-18T07:05:01.384Z,16.2
2022-10-18T07:06:02.407Z,16.1
2022-10-18T07:07:02.268Z,16.2
2022-10-18T07:08:02.255Z,16.2
2022-10-18T07:09:02.118Z,16.3
2022-10-18T07:10:02.187Z,16.3
2022-10-18T07:11:02.026Z,16.4
2022-10-18T07:12:02.104Z,16.5
2022-10-18T07:13:27.190Z,16.5
2022-10-18T07:14:01.858Z,16.3
2022-10-18T07:15:04.442Z,16.4
2022-10-18T07:16:01.847Z,16.4
2022-10-18T07:17:01.814Z,16.9
2022-10-18T07:18:01.860Z,17.1
2022-10-18T07:19:01.654Z,16.7
2022-10-18T07:20:01.642Z,16.7
2022-10-18T07:21:01.491Z,16.5
2022-10-18T07:22:01.569Z,16.8
2022-10-18T07:23:01.351Z,16.8
2022-10-18T07:24:01.522Z,17.1
2022-10-18T07:25:01.341Z,17
2022-10-18T07:26:02.439Z,17
2022-10-18T07:27:02.250Z,17
2022-10-18T07:28:02.305Z,17
2022-10-18T07:29:02.277Z,17
2022-10-18T07:30:01.458Z,17.1
2022-10-18T07:31:03.627Z,17.3
2022-10-18T07:32:01.921Z,17.2
2022-10-18T07:33:01.970Z,17.4
2022-10-18T07:34:01.833Z,17.2
2022-10-18T07:35:01.784Z,17.3
2022-10-18T07:36:01.880Z,17.1
2022-10-18T07:37:01.687Z,17.4
2022-10-18T07:38:01.647Z,17.5
2022-10-18T07:39:01.461Z,17.3
2022-10-18T07:40:01.880Z,17.6
2022-10-18T07:41:02.082Z,17.8
2022-10-18T07:42:02.049Z,17.5
2022-10-18T07:43:04.152Z,17.5
2022-10-18T07:44:01.846Z,17.9
2022-10-18T07:45:01.791Z,17.6
2022-10-18T07:46:02.064Z,17.6
2022-10-18T07:47:02.131Z,18.3
2022-10-18T07:48:02.099Z,17.9
2022-10-18T07:49:02.034Z,18
2022-10-18T07:50:02.105Z,18.4
2022-10-18T07:51:01.909Z,18.6
2022-10-18T07:52:01.841Z,18.1
2022-10-18T07:53:01.844Z,18.2
2022-10-18T07:54:01.702Z,18.4
2022-10-18T07:55:01.779Z,18.5
2022-10-18T07:56:03.351Z,18.4
2022-10-18T07:57:02.225Z,18.9
2022-10-18T07:58:02.328Z,17.8
2022-10-18T07:59:02.148Z,18
2022-10-18T08:00:02.195Z,18.4
2022-10-18T08:01:01.835Z,18.3
2022-10-18T08:02:01.991Z,18.5
2022-10-18T08:03:01.869Z,18.6
2022-10-18T08:04:06.271Z,18.8
2022-10-18T08:05:01.552Z,18.4
2022-10-18T08:06:01.564Z,18.3
2022-10-18T08:07:01.374Z,18.5
2022-10-18T08:08:03.022Z,18.6
2022-10-18T08:09:01.758Z,18.5
2022-10-18T08:10:01.671Z,18.5
2022-10-18T08:11:01.690Z,18.5
2022-10-18T08:12:01.540Z,18.6
2022-10-18T08:13:01.582Z,18.3
2022-10-18T08:14:01.423Z,18.3
2022-10-18T08:15:01.492Z,18.5
2022-10-18T08:16:01.379Z,18.4
2022-10-18T08:17:01.475Z,18.9
2022-10-18T08:18:02.436Z,18.8
2022-10-18T08:19:02.235Z,18.5
2022-10-18T08:20:12.537Z,18.3
2022-10-18T08:21:01.852Z,18.8
2022-10-18T08:22:01.846Z,18.6
2022-10-18T08:23:01.665Z,18.8
2022-10-18T08:24:02.005Z,19.1
2022-10-18T08:25:01.821Z,19.3
2022-10-18T08:26:01.743Z,19.3
2022-10-18T08:27:02.152Z,19.5
2022-10-18T08:28:01.916Z,19.6
2022-10-18T08:29:17.828Z,19.4
2022-10-18T08:30:01.521Z,19.2
2022-10-18T08:31:01.426Z,19.4
2022-10-18T08:32:01.463Z,19.8
2022-10-18T08:33:02.383Z,19.8
2022-10-18T08:34:02.203Z,19.6
2022-10-18T08:35:03.281Z,19.7
2022-10-18T08:36:01.880Z,19.7
2022-10-18T08:37:01.975Z,19.6
2022-10-18T08:38:01.726Z,19.5
2022-10-18T08:39:01.778Z,20
2022-10-18T08:40:01.926Z,19.9
2022-10-18T08:41:01.874Z,19.7
2022-10-18T08:42:01.873Z,19.7
2022-10-18T08:43:02.113Z,20
2022-10-18T08:44:03.343Z,20.1
2022-10-18T08:45:05.055Z,19.9
2022-10-18T08:46:01.516Z,19.7
2022-10-18T08:47:01.527Z,19.4
2022-10-18T08:48:01.386Z,19.8
2022-10-18T08:49:01.451Z,19.9
2022-10-18T08:50:01.309Z,19.7
2022-10-18T08:51:02.380Z,19.8
2022-10-18T08:52:02.212Z,19.8
2022-10-18T08:53:02.267Z,19.8
2022-10-18T08:54:01.321Z,20
2022-10-18T08:55:02.380Z,19.9
2022-10-18T08:56:02.216Z,19.6
2022-10-18T08:57:02.275Z,19.6
2022-10-18T08:58:01.332Z,19.6
2022-10-18T08:59:02.344Z,19.8
2022-10-18T09:00:02.246Z,19.7
2022-10-18T09:01:01.988Z,20
2022-10-18T09:02:02.091Z,20
2022-10-18T09:03:01.321Z,20.3
2022-10-18T09:04:02.383Z,20.5
2022-10-18T09:05:01.631Z,20.5
2022-10-18T09:06:01.612Z,20.4
2022-10-18T09:07:01.421Z,20.4
2022-10-18T09:08:01.463Z,20.4
2022-10-18T09:09:02.342Z,20.6
2022-10-18T09:10:02.233Z,20.6
2022-10-18T09:11:02.298Z,20.7
2022-10-18T09:12:02.353Z,20.8
2022-10-18T09:13:02.320Z,21
2022-10-18T09:14:02.186Z,21.3
2022-10-18T09:15:02.223Z,21.1
2022-10-18T09:16:01.722Z,21.2
2022-10-18T09:17:01.814Z,21.6
2022-10-18T09:18:01.573Z,20.8
2022-10-18T09:19:01.664Z,20.6
2022-10-18T09:20:01.399Z,20.9
2022-10-18T09:21:01.498Z,21.3
2022-10-18T09:22:03.098Z,21.4
2022-10-18T09:23:02.133Z,21
2022-10-18T09:24:02.139Z,21.3
2022-10-18T09:25:02.008Z,21.2
2022-10-18T09:26:01.892Z,21.6
2022-10-18T09:27:01.918Z,21.4
2022-10-18T09:28:01.772Z,21.6
2022-10-18T09:29:01.753Z,21.4
2022-10-18T09:30:02.125Z,21.6
2022-10-18T09:31:01.843Z,22
2022-10-18T09:32:01.815Z,21.9
2022-10-18T09:33:02.148Z,21.4
2022-10-18T09:34:01.979Z,21.5
2022-10-18T09:35:01.930Z,21.5
2022-10-18T09:36:01.955Z,21.5
2022-10-18T09:37:01.769Z,21.5
2022-10-18T09:38:01.723Z,21.6
2022-10-18T09:39:01.819Z,21.4
2022-10-18T09:40:01.625Z,21.6
2022-10-18T09:41:01.670Z,21.5
2022-10-18T09:42:01.459Z,21.5
2022-10-18T09:43:01.580Z,21.7
2022-10-18T09:44:01.386Z,21.8
2022-10-18T09:45:01.544Z,21.9
2022-10-18T09:46:02.316Z,21.7
2022-10-18T09:47:02.183Z,21.3
2022-10-18T09:48:02.303Z,21.3
2022-10-18T09:49:02.159Z,21.6
2022-10-18T09:50:02.244Z,21.7
2022-10-18T09:51:02.064Z,21.5
2022-10-18T09:52:02.184Z,21.5
2022-10-18T09:53:02.036Z,21.7
2022-10-18T09:54:02.157Z,22
2022-10-18T09:55:01.963Z,21.5
2022-10-18T09:56:01.990Z,21.8
2022-10-18T09:57:01.769Z,21.6
2022-10-18T09:58:01.709Z,22
2022-10-18T09:59:01.809Z,22.3
2022-10-18T10:00:01.549Z,22.1
2022-10-18T10:01:01.343Z,21.7
2022-10-18T10:02:02.472Z,21.9
2022-10-18T10:03:01.408Z,22
2022-10-18T10:04:01.490Z,21.6
2022-10-18T10:05:02.437Z,22.1
2022-10-18T10:06:01.415Z,21.8
2022-10-18T10:07:01.488Z,21.8
2022-10-18T10:08:01.369Z,21.9
2022-10-18T10:09:02.425Z,22.1
2022-10-18T10:10:02.213Z,22
2022-10-18T10:11:02.267Z,21.9
2022-10-18T10:12:02.075Z,22.3
2022-10-18T10:13:02.247Z,22.2
2022-10-18T10:14:02.053Z,22.5
2022-10-18T10:15:02.060Z,22.9
2022-10-18T10:16:01.854Z,22.8
2022-10-18T10:17:01.857Z,22.7
2022-10-18T10:18:01.978Z,22.2
2022-10-18T10:19:01.829Z,22.3
2022-10-18T10:20:01.643Z,22.2
2022-10-18T10:21:01.727Z,22
2022-10-18T10:22:01.502Z,21.9
2022-10-18T10:23:01.502Z,22.8
2022-10-18T10:24:01.329Z,22.5
2022-10-18T10:25:02.392Z,22
2022-10-18T10:26:02.253Z,22.4
2022-10-18T10:27:02.352Z,22.6
2022-10-18T10:28:02.153Z,22.5
2022-10-18T10:29:02.366Z,22.2
2022-10-18T10:30:04.291Z,23
2022-10-18T10:31:01.308Z,23.3
2022-10-18T10:32:02.444Z,23.4
2022-10-18T10:33:02.238Z,22.9
2022-10-18T10:34:02.303Z,23.4
2022-10-18T10:35:02.162Z,23.6
2022-10-18T10:36:02.203Z,23
2022-10-18T10:37:02.033Z,23.2
2022-10-18T10:38:01.509Z,23.2
2022-10-18T10:39:01.321Z,23
2022-10-18T10:40:18.672Z,22.8
2022-10-18T10:41:01.857Z,22.9
2022-10-18T10:42:01.894Z,22.9
2022-10-18T10:43:08.702Z,23
2022-10-18T10:44:01.472Z,22.7
2022-10-18T10:45:01.566Z,22.6
2022-10-18T10:46:02.335Z,22.6
2022-10-18T10:47:02.168Z,22.4
2022-10-18T10:48:02.245Z,22.3
2022-10-18T10:49:27.736Z,22.4
2022-10-18T10:50:01.633Z,22.6
2022-10-18T10:51:01.689Z,22.8
2022-10-18T10:52:08.645Z,22.8
2022-10-18T10:53:01.776Z,23
2022-10-18T10:54:01.868Z,23.2
2022-10-18T10:55:06.026Z,23.2
2022-10-18T10:56:01.940Z,23.3
2022-10-18T10:57:01.945Z,23.1
2022-10-18T10:58:01.786Z,22.9
2022-10-18T10:59:01.827Z,23
2022-10-18T11:00:01.838Z,22.8
2022-10-18T11:01:01.730Z,22.9
2022-10-18T11:02:01.714Z,23
2022-10-18T11:03:06.088Z,23
2022-10-18T11:04:01.605Z,22.9
2022-10-18T11:05:01.651Z,23.3
2022-10-18T11:06:01.391Z,23.4
2022-10-18T11:07:01.451Z,23.3
2022-10-18T11:08:02.370Z,23.8
2022-10-18T11:09:02.267Z,23.8
2022-10-18T11:10:02.357Z,23.4
2022-10-18T11:11:02.152Z,23.5
2022-10-18T11:12:02.214Z,23.3
2022-10-18T11:13:02.056Z,22.9
2022-10-18T11:14:20.819Z,22.7
2022-10-18T11:15:01.713Z,22.9
2022-10-18T11:16:01.638Z,23.3
2022-10-18T11:17:04.337Z,23
2022-10-18T11:18:01.889Z,23.3
2022-10-18T11:19:01.853Z,23.2
2022-10-18T11:20:02.024Z,22.8
2022-10-18T11:21:01.793Z,23.3
2022-10-18T11:22:01.777Z,23.3
2022-10-18T11:23:01.852Z,23.3
2022-10-18T11:24:01.653Z,23.1
2022-10-18T11:25:01.645Z,23.5
2022-10-18T11:26:01.500Z,23.3
2022-10-18T11:27:01.449Z,23.9
2022-10-18T11:28:01.351Z,24.1
2022-10-18T11:29:02.490Z,23.9
2022-10-18T11:30:01.338Z,23.1
2022-10-18T11:31:01.342Z,23.5
2022-10-18T11:32:02.469Z,23.4
2022-10-18T11:33:01.321Z,23.5
2022-10-18T11:34:09.786Z,23.4
2022-10-18T11:35:02.176Z,22.7
2022-10-18T11:36:03.849Z,23
2022-10-18T11:37:26.228Z,22.8
2022-10-18T11:38:01.637Z,23
2022-10-18T11:39:01.734Z,22.9
2022-10-18T11:40:01.473Z,23
2022-10-18T11:41:01.483Z,23.1
2022-10-18T11:42:01.325Z,23.2
2022-10-18T11:43:02.381Z,23.6
2022-10-18T11:44:02.902Z,23.8
2022-10-18T11:45:01.653Z,24
2022-10-18T11:46:01.857Z,24.1
2022-10-18T11:47:01.995Z,23.7
2022-10-18T11:48:01.865Z,23.6
2022-10-18T11:49:01.847Z,24
2022-10-18T11:50:01.932Z,24.2
2022-10-18T11:51:01.716Z,24.4
2022-10-18T11:52:08.158Z,24.9
2022-10-18T11:53:02.066Z,24.7
2022-10-18T11:54:01.984Z,24.7
2022-10-18T11:55:02.040Z,23.8
2022-10-18T11:56:01.895Z,23.8
2022-10-18T11:57:01.833Z,23.1
2022-10-18T11:58:01.915Z,23.8
2022-10-18T11:59:01.833Z,23.9
2022-10-18T12:00:01.793Z,24
2022-10-18T12:01:01.873Z,24.1
2022-10-18T12:02:01.929Z,23.5
2022-10-18T12:03:01.783Z,23.7
2022-10-18T12:04:01.821Z,23.8
2022-10-18T12:05:24.421Z,23.7
2022-10-18T12:06:01.730Z,23.5
2022-10-18T12:07:01.792Z,23.7
2022-10-18T12:08:01.625Z,23.6
2022-10-18T12:09:01.665Z,23.7
2022-10-18T12:10:01.446Z,23.4
2022-10-18T12:11:05.697Z,23.4
2022-10-18T12:12:01.504Z,23.2
2022-10-18T12:13:01.560Z,23.3
2022-10-18T12:14:01.350Z,23.3
2022-10-18T12:15:02.377Z,23.6
2022-10-18T12:16:02.019Z,23.7
2022-10-18T12:17:28.348Z,24.2
2022-10-18T12:18:02.402Z,24.1
2022-10-18T12:19:02.269Z,24.2
2022-10-18T12:20:02.361Z,24.3
2022-10-18T12:21:02.372Z,23.9
2022-10-18T12:22:01.589Z,23.8
2022-10-18T12:23:01.480Z,24
2022-10-18T12:24:01.440Z,23.6
2022-10-18T12:25:01.301Z,23.6
2022-10-18T12:26:02.378Z,23.8
2022-10-18T12:27:02.243Z,23.6
2022-10-18T12:28:02.301Z,23.4
2022-10-18T12:29:02.165Z,23.1
2022-10-18T12:30:02.266Z,23.1
2022-10-18T12:31:01.777Z,23.6
2022-10-18T12:32:01.931Z,24
2022-10-18T12:33:16.721Z,23.6
2022-10-18T12:34:01.642Z,23.9
2022-10-18T12:35:01.657Z,23.6
2022-10-18T12:36:01.468Z,23.3
2022-10-18T12:37:01.466Z,23.4
2022-10-18T12:38:01.316Z,23.4
2022-10-18T12:39:02.374Z,23.5
2022-10-18T12:40:10.434Z,23.8
2022-10-18T12:41:01.598Z,23.9
2022-10-18T12:42:01.638Z,24
2022-10-18T12:43:01.411Z,23.8
2022-10-18T12:44:01.447Z,23.4
2022-10-18T12:45:02.444Z,23.5
2022-10-18T12:46:01.887Z,24.1
2022-10-18T12:47:01.956Z,24
2022-10-18T12:48:01.772Z,23.6
2022-10-18T12:49:01.666Z,23.2
2022-10-18T12:50:01.703Z,23.7
2022-10-18T12:51:01.481Z,23.5
2022-10-18T12:52:01.440Z,23.4
2022-10-18T12:53:01.327Z,23.9
2022-10-18T12:54:02.385Z,23.8
2022-10-18T12:55:02.299Z,23.5
2022-10-18T12:56:02.378Z,23.5
2022-10-18T12:57:02.169Z,23.7
2022-10-18T12:58:02.271Z,23.6
2022-10-18T12:59:02.034Z,23.6
2022-10-18T13:00:02.087Z,23.6
2022-10-18T13:01:01.721Z,23.5
2022-10-18T13:02:01.925Z,23.2
2022-10-18T13:03:01.968Z,23.4
2022-10-18T13:04:01.814Z,23.5
2022-10-18T13:05:01.789Z,23.6
2022-10-18T13:06:06.368Z,23.1
2022-10-18T13:07:01.579Z,22.8
2022-10-18T13:08:01.644Z,23.1
2022-10-18T13:09:01.422Z,22.9
2022-10-18T13:10:01.427Z,22.9
2022-10-18T13:11:02.339Z,22.8
2022-10-18T13:12:02.297Z,22.8
2022-10-18T13:13:08.582Z,23.4
2022-10-18T13:14:01.927Z,22.8
2022-10-18T13:15:07.184Z,22.7
2022-10-18T13:16:01.516Z,22.8
2022-10-18T13:17:01.493Z,23.2
2022-10-18T13:18:01.343Z,22.8
2022-10-18T13:19:02.436Z,23.1
2022-10-18T13:20:24.361Z,22.9
2022-10-18T13:21:02.245Z,23.1
2022-10-18T13:22:02.303Z,23.2
2022-10-18T13:23:02.145Z,23.4
2022-10-18T13:24:02.252Z,23.1
2022-10-18T13:25:02.159Z,23